sensor_id;sensor_type;location;lat;lon;timestamp;pressure;altitude;pressure_sealevel;temperature;humidity
7022;BME280;3552;42.664;23.406;2022-10-31T00:01:27;50314.50;;;-141.28;100.00
7022;BME280;3552;42.664;23.406;2022-10-31T00:03:55;50328.25;;;-141.28;100.00
7022;BME280;3552;42.664;23.406;2022-10-31T00:06:22;50365.53;;;-141.28;100.00
7022;BME280;3552;42.664;23.406;2022-10-31T00:08:54;50357.69;;;-141.28;100.00
7022;BME280;3552;42.664;23.406;2022-10-31T00:11:21;50485.28;;;-141.28;100.00
7022;BME280;3552;42.664;23.406;2022-10-31T00:13:49;50424.44;;;-141.28;100.00
7022;BME280;3552;42.664;23.406;2022-10-31T00:16:16;50404.81;;;-141.28;100.00
7022;BME280;3552;42.664;23.406;2022-10-31T00:18:48;50422.47;;;-141.28;100.00
7022;BME280;3552;42.664;23.406;2022-10-31T00:21:16;50406.75;;;-141.28;100.00
7022;BME280;3552;42.664;23.406;2022-10-31T00:23:43;50393.03;;;-141.28;100.00
7022;BME280;3552;42.664;23.406;2022-10-31T00:26:11;50389.09;;;-141.28;100.00
7022;BME280;3552;42.664;23.406;2022-10-31T00:28:39;50393.03;;;-141.28;100.00
7022;BME280;3552;42.664;23.406;2022-10-31T00:31:07;50402.84;;;-141.28;100.00
7022;BME280;3552;42.664;23.406;2022-10-31T00:33:36;50440.13;;;-141.28;100.00
7022;BME280;3552;42.664;23.406;2022-10-31T00:36:07;50440.13;;;-141.28;100.00
7022;BME280;3552;42.664;23.406;2022-10-31T00:38:34;50424.44;;;-141.28;100.00
7022;BME280;3552;42.664;23.406;2022-10-31T00:41:01;50459.75;;;-141.28;100.00
7022;BME280;3552;42.664;23.406;2022-10-31T00:43:30;50389.09;;;-141.28;100.00
7022;BME280;3552;42.664;23.406;2022-10-31T00:45:57;50432.28;;;-141.28;100.00
7022;BME280;3552;42.664;23.406;2022-10-31T00:48:24;50408.72;;;-141.28;100.00
7022;BME280;3552;42.664;23.406;2022-10-31T00:50:52;50398.91;;;-141.28;100.00
7022;BME280;3552;42.664;23.406;2022-10-31T00:53:20;50365.53;;;-141.28;100.00
7022;BME280;3552;42.664;23.406;2022-10-31T00:55:47;50330.22;;;-141.28;100.00
7022;BME280;3552;42.664;23.406;2022-10-31T00:58:14;50289.00;;;-141.28;100.00
7022;BME280;3552;42.664;23.406;2022-10-31T01:00:43;50224.22;;;-141.28;100.00
7022;BME280;3552;42.664;23.406;2022-10-31T01:03:09;49870.94;;;-141.28;100.00
7022;BME280;3552;42.664;23.406;2022-10-31T01:05:36;49843.47;;;-141.28;100.00
7022;BME280;3552;42.664;23.406;2022-10-31T01:08:04;49894.50;;;-141.28;100.00
7022;BME280;3552;42.664;23.406;2022-10-31T01:10:31;49865.06;;;-141.28;100.00
7022;BME280;3552;42.664;23.406;2022-10-31T01:12:58;49808.16;;;-141.28;100.00
7022;BME280;3552;42.664;23.406;2022-10-31T01:15:25;49713.94;;;-141.28;100.00
7022;BME280;3552;42.664;23.406;2022-10-31T01:17:53;49698.25;;;-141.28;100.00
7022;BME280;3552;42.664;23.406;2022-10-31T01:20:20;49745.34;;;-141.28;100.00
7022;BME280;3552;42.664;23.406;2022-10-31T01:22:47;49668.81;;;-141.28;100.00
7022;BME280;3552;42.664;23.406;2022-10-31T01:25:14;49621.72;;;-141.28;100.00
7022;BME280;3552;42.664;23.406;2022-10-31T01:27:41;49588.34;;;-141.28;100.00
7022;BME280;3552;42.664;23.406;2022-10-31T01:30:10;49580.50;;;-141.28;100.00
7022;BME280;3552;42.664;23.406;2022-10-31T01:32:37;49574.63;;;-141.28;100.00
7022;BME280;3552;42.664;23.406;2022-10-31T01:35:06;49607.97;;;-141.28;100.00
7022;BME280;3552;42.664;23.406;2022-10-31T01:37:33;49568.75;;;-141.28;100.00
7022;BME280;3552;42.664;23.406;2022-10-31T01:39:59;49564.81;;;-141.28;100.00
7022;BME280;3552;42.664;23.406;2022-10-31T01:42:26;49541.25;;;-141.28;100.00
7022;BME280;3552;42.664;23.406;2022-10-31T01:44:58;49592.28;;;-141.28;100.00
7022;BME280;3552;42.664;23.406;2022-10-31T01:47:35;49600.13;;;-141.28;100.00
7022;BME280;3552;42.664;23.406;2022-10-31T01:50:11;49621.72;;;-141.28;100.00
7022;BME280;3552;42.664;23.406;2022-10-31T01:52:41;49678.63;;;-141.28;100.00
7022;BME280;3552;42.664;23.406;2022-10-31T01:55:13;49706.09;;;-141.28;100.00
7022;BME280;3552;42.664;23.406;2022-10-31T01:57:44;49745.34;;;-141.28;100.00
7022;BME280;3552;42.664;23.406;2022-10-31T02:00:14;49694.31;;;-141.28;100.00
7022;BME280;3552;42.664;23.406;2022-10-31T02:02:42;49659.00;;;-141.28;100.00
7022;BME280;3552;42.664;23.406;2022-10-31T02:05:17;49647.22;;;-141.28;100.00
7022;BME280;3552;42.664;23.406;2022-10-31T02:07:49;49627.59;;;-141.28;100.00
7022;BME280;3552;42.664;23.406;2022-10-31T02:10:19;49662.94;;;-141.28;100.00
7022;BME280;3552;42.664;23.406;2022-10-31T02:12:47;49651.16;;;-141.28;100.00
7022;BME280;3552;42.664;23.406;2022-10-31T02:15:14;49600.13;;;-141.28;100.00
7022;BME280;3552;42.664;23.406;2022-10-31T02:17:40;49568.75;;;-141.28;100.00
7022;BME280;3552;42.664;23.406;2022-10-31T02:20:15;49572.66;;;-141.28;100.00
7022;BME280;3552;42.664;23.406;2022-10-31T02:23:18;49643.31;;;-141.28;100.00
7022;BME280;3552;42.664;23.406;2022-10-31T02:29:15;49666.84;;;-141.28;100.00
7022;BME280;3552;42.664;23.406;2022-10-31T02:31:54;49682.56;;;-141.28;100.00
7022;BME280;3552;42.664;23.406;2022-10-31T02:34:30;49678.63;;;-141.28;100.00
7022;BME280;3552;42.664;23.406;2022-10-31T02:37:03;49686.47;;;-141.28;100.00
7022;BME280;3552;42.664;23.406;2022-10-31T02:39:37;49659.00;;;-141.28;100.00
7022;BME280;3552;42.664;23.406;2022-10-31T02:42:16;49651.16;;;-141.28;100.00
7022;BME280;3552;42.664;23.406;2022-10-31T02:44:50;49698.25;;;-141.28;100.00
7022;BME280;3552;42.664;23.406;2022-10-31T02:47:23;49666.84;;;-141.28;100.00
7022;BME280;3552;42.664;23.406;2022-10-31T02:49:57;49635.47;;;-141.28;100.00
7022;BME280;3552;42.664;23.406;2022-10-31T02:52:28;49615.84;;;-141.28;100.00
7022;BME280;3552;42.664;23.406;2022-10-31T02:54:54;49596.22;;;-141.28;100.00
7022;BME280;3552;42.664;23.406;2022-10-31T02:57:24;49572.66;;;-141.28;100.00
7022;BME280;3552;42.664;23.406;2022-10-31T02:59:54;49547.16;;;-141.28;100.00
7022;BME280;3552;42.664;23.406;2022-10-31T03:02:55;49562.84;;;-141.28;100.00
7022;BME280;3552;42.664;23.406;2022-10-31T03:05:40;49635.47;;;-141.28;100.00
7022;BME280;3552;42.664;23.406;2022-10-31T03:08:16;49621.72;;;-141.28;100.00
7022;BME280;3552;42.664;23.406;2022-10-31T03:10:52;49609.94;;;-141.28;100.00
7022;BME280;3552;42.664;23.406;2022-10-31T03:13:29;49655.09;;;-141.28;100.00
7022;BME280;3552;42.664;23.406;2022-10-31T03:16:04;49604.06;;;-141.28;100.00
7022;BME280;3552;42.664;23.406;2022-10-31T03:18:39;49580.50;;;-141.28;100.00
7022;BME280;3552;42.664;23.406;2022-10-31T03:21:10;49551.06;;;-141.28;100.00
7022;BME280;3552;42.664;23.406;2022-10-31T03:23:39;49531.44;;;-141.28;100.00
7022;BME280;3552;42.664;23.406;2022-10-31T03:26:09;49484.34;;;-141.28;100.00
7022;BME280;3552;42.664;23.406;2022-10-31T03:28:41;49447.06;;;-141.28;100.00
7022;BME280;3552;42.664;23.406;2022-10-31T03:31:12;49443.16;;;-141.28;100.00
7022;BME280;3552;42.664;23.406;2022-10-31T03:33:45;49439.22;;;-141.28;100.00
7022;BME280;3552;42.664;23.406;2022-10-31T03:36:15;49421.56;;;-141.28;100.00
7022;BME280;3552;42.664;23.406;2022-10-31T03:38:45;49396.06;;;-141.28;100.00
7022;BME280;3552;42.664;23.406;2022-10-31T03:41:16;49451.00;;;-141.28;100.00
7022;BME280;3552;42.664;23.406;2022-10-31T03:43:50;49490.25;;;-141.28;100.00
7022;BME280;3552;42.664;23.406;2022-10-31T03:46:18;49494.16;;;-141.28;100.00
7022;BME280;3552;42.664;23.406;2022-10-31T03:48:47;49454.94;;;-141.28;100.00
7022;BME280;3552;42.664;23.406;2022-10-31T03:51:18;49443.16;;;-141.28;100.00
7022;BME280;3552;42.664;23.406;2022-10-31T03:53:52;49492.22;;;-141.28;100.00
7022;BME280;3552;42.664;23.406;2022-10-31T03:56:27;49460.81;;;-141.28;100.00
7022;BME280;3552;42.664;23.406;2022-10-31T03:58:59;49472.59;;;-141.28;100.00
7022;BME280;3552;42.664;23.406;2022-10-31T04:01:28;49505.94;;;-141.28;100.00
7022;BME280;3552;42.664;23.406;2022-10-31T04:03:58;49521.63;;;-141.28;100.00
7022;BME280;3552;42.664;23.406;2022-10-31T04:06:26;49454.94;;;-141.28;100.00
7022;BME280;3552;42.664;23.406;2022-10-31T04:08:57;49470.63;;;-141.28;100.00
7022;BME280;3552;42.664;23.406;2022-10-31T04:11:28;49521.63;;;-141.28;100.00
7022;BME280;3552;42.664;23.406;2022-10-31T04:13:56;49494.16;;;-141.28;100.00
7022;BME280;3552;42.664;23.406;2022-10-31T04:16:26;49498.09;;;-141.28;100.00
7022;BME280;3552;42.664;23.406;2022-10-31T04:18:53;49541.25;;;-141.28;100.00
7022;BME280;3552;42.664;23.406;2022-10-31T04:21:26;49545.19;;;-141.28;100.00
7022;BME280;3552;42.664;23.406;2022-10-31T04:23:53;49584.44;;;-141.28;100.00
7022;BME280;3552;42.664;23.406;2022-10-31T04:26:20;49545.19;;;-141.28;100.00
7022;BME280;3552;42.664;23.406;2022-10-31T04:28:47;49515.75;;;-141.28;100.00
7022;BME280;3552;42.664;23.406;2022-10-31T04:31:14;49507.91;;;-141.28;100.00
7022;BME280;3552;42.664;23.406;2022-10-31T04:33:41;49505.94;;;-141.28;100.00
7022;BME280;3552;42.664;23.406;2022-10-31T04:36:08;49515.75;;;-141.28;100.00
7022;BME280;3552;42.664;23.406;2022-10-31T04:38:37;49513.78;;;-141.28;100.00
7022;BME280;3552;42.664;23.406;2022-10-31T04:41:05;49519.69;;;-141.28;100.00
7022;BME280;3552;42.664;23.406;2022-10-31T04:43:32;49592.28;;;-141.28;100.00
7022;BME280;3552;42.664;23.406;2022-10-31T04:45:59;49537.34;;;-141.28;100.00
7022;BME280;3552;42.664;23.406;2022-10-31T04:48:26;49533.41;;;-141.28;100.00
7022;BME280;3552;42.664;23.406;2022-10-31T04:50:53;49527.53;;;-141.28;100.00
7022;BME280;3552;42.664;23.406;2022-10-31T04:53:25;49547.16;;;-141.28;100.00
7022;BME280;3552;42.664;23.406;2022-10-31T04:55:54;49556.97;;;-141.28;100.00
7022;BME280;3552;42.664;23.406;2022-10-31T04:58:21;49515.75;;;-141.28;100.00
7022;BME280;3552;42.664;23.406;2022-10-31T05:00:51;49513.78;;;-141.28;100.00
7022;BME280;3552;42.664;23.406;2022-10-31T05:03:18;49509.88;;;-141.28;100.00
7022;BME280;3552;42.664;23.406;2022-10-31T05:05:45;49503.97;;;-141.28;100.00
7022;BME280;3552;42.664;23.406;2022-10-31T05:08:13;49525.56;;;-141.28;100.00
7022;BME280;3552;42.664;23.406;2022-10-31T05:10:40;49529.50;;;-141.28;100.00
7022;BME280;3552;42.664;23.406;2022-10-31T05:13:10;49564.81;;;-141.28;100.00
7022;BME280;3552;42.664;23.406;2022-10-31T05:15:40;49513.78;;;-141.28;100.00
7022;BME280;3552;42.664;23.406;2022-10-31T05:18:07;49515.75;;;-141.28;100.00
7022;BME280;3552;42.664;23.406;2022-10-31T05:20:33;49519.69;;;-141.28;100.00
7022;BME280;3552;42.664;23.406;2022-10-31T05:23:00;49503.97;;;-141.28;100.00
7022;BME280;3552;42.664;23.406;2022-10-31T05:25:28;49451.00;;;-141.28;100.00
7022;BME280;3552;42.664;23.406;2022-10-31T05:27:55;49409.78;;;-141.28;100.00
7022;BME280;3552;42.664;23.406;2022-10-31T05:30:26;49403.91;;;-141.28;100.00
7022;BME280;3552;42.664;23.406;2022-10-31T05:32:53;49462.78;;;-141.28;100.00
7022;BME280;3552;42.664;23.406;2022-10-31T05:35:22;49502.03;;;-141.28;100.00
7022;BME280;3552;42.664;23.406;2022-10-31T05:37:49;49503.97;;;-141.28;100.00
7022;BME280;3552;42.664;23.406;2022-10-31T05:40:18;49564.81;;;-141.28;100.00
7022;BME280;3552;42.664;23.406;2022-10-31T05:42:46;49560.88;;;-141.28;100.00
7022;BME280;3552;42.664;23.406;2022-10-31T05:45:14;49553.03;;;-141.28;100.00
7022;BME280;3552;42.664;23.406;2022-10-31T05:47:50;49607.97;;;-141.28;100.00
7022;BME280;3552;42.664;23.406;2022-10-31T05:50:16;49702.19;;;-141.28;100.00
7022;BME280;3552;42.664;23.406;2022-10-31T05:52:43;49804.22;;;-141.28;100.00
7022;BME280;3552;42.664;23.406;2022-10-31T05:55:11;50106.47;;;-141.28;100.00
7022;BME280;3552;42.664;23.406;2022-10-31T05:57:38;50318.44;;;-141.28;100.00
7022;BME280;3552;42.664;23.406;2022-10-31T06:00:06;49886.66;;;-141.28;100.00
7022;BME280;3552;42.664;23.406;2022-10-31T06:02:33;49417.63;;;-141.28;100.00
7022;BME280;3552;42.664;23.406;2022-10-31T06:05:02;49286.16;;;-141.28;100.00
7022;BME280;3552;42.664;23.406;2022-10-31T06:07:32;49229.28;;;-141.28;100.00
7022;BME280;3552;42.664;23.406;2022-10-31T06:09:59;49246.94;;;-141.28;100.00
7022;BME280;3552;42.664;23.406;2022-10-31T06:12:26;49148.81;;;-141.28;100.00
7022;BME280;3552;42.664;23.406;2022-10-31T06:14:54;49396.06;;;-141.28;100.00
7022;BME280;3552;42.664;23.406;2022-10-31T06:17:21;49278.31;;;-141.28;100.00
7022;BME280;3552;42.664;23.406;2022-10-31T06:19:48;49348.97;;;-141.28;100.00
7022;BME280;3552;42.664;23.406;2022-10-31T06:22:16;49360.75;;;-141.28;100.00
7022;BME280;3552;42.664;23.406;2022-10-31T06:24:43;49399.97;;;-141.28;100.00
7022;BME280;3552;42.664;23.406;2022-10-31T06:27:10;49466.69;;;-141.28;100.00
7022;BME280;3552;42.664;23.406;2022-10-31T06:29:37;49462.78;;;-141.28;100.00
7022;BME280;3552;42.664;23.406;2022-10-31T06:32:04;49423.53;;;-141.28;100.00
7022;BME280;3552;42.664;23.406;2022-10-31T06:34:31;49449.03;;;-141.28;100.00
7022;BME280;3552;42.664;23.406;2022-10-31T06:36:59;49466.69;;;-141.28;100.00
7022;BME280;3552;42.664;23.406;2022-10-31T06:39:28;49525.56;;;-141.28;100.00
7022;BME280;3552;42.664;23.406;2022-10-31T06:41:55;49551.06;;;-141.28;100.00
7022;BME280;3552;42.664;23.406;2022-10-31T06:44:22;49539.31;;;-141.28;100.00
7022;BME280;3552;42.664;23.406;2022-10-31T06:46:49;49490.25;;;-141.28;100.00
7022;BME280;3552;42.664;23.406;2022-10-31T06:49:16;49466.69;;;-141.28;100.00
7022;BME280;3552;42.664;23.406;2022-10-31T06:51:43;49443.16;;;-141.28;100.00
7022;BME280;3552;42.664;23.406;2022-10-31T06:54:09;49466.69;;;-141.28;100.00
7022;BME280;3552;42.664;23.406;2022-10-31T06:56:38;49411.75;;;-141.28;100.00
7022;BME280;3552;42.664;23.406;2022-10-31T06:59:05;49396.06;;;-141.28;100.00
7022;BME280;3552;42.664;23.406;2022-10-31T07:01:32;49392.13;;;-141.28;100.00
7022;BME280;3552;42.664;23.406;2022-10-31T07:03:59;49403.91;;;-141.28;100.00
7022;BME280;3552;42.664;23.406;2022-10-31T07:06:26;49348.97;;;-141.28;100.00
7022;BME280;3552;42.664;23.406;2022-10-31T07:08:52;49390.16;;;-141.28;100.00
7022;BME280;3552;42.664;23.406;2022-10-31T07:11:19;49384.28;;;-141.28;100.00
7022;BME280;3552;42.664;23.406;2022-10-31T07:13:47;49403.91;;;-141.28;100.00
7022;BME280;3552;42.664;23.406;2022-10-31T07:16:14;49372.50;;;-141.28;100.00
7022;BME280;3552;42.664;23.406;2022-10-31T07:18:41;49364.66;;;-141.28;100.00
7022;BME280;3552;42.664;23.406;2022-10-31T07:21:08;49368.59;;;-141.28;100.00
7022;BME280;3552;42.664;23.406;2022-10-31T07:23:37;49347.00;;;-141.28;100.00
7022;BME280;3552;42.664;23.406;2022-10-31T07:26:04;49274.41;;;-141.28;100.00
7022;BME280;3552;42.664;23.406;2022-10-31T07:28:31;49321.50;;;-141.28;100.00
7022;BME280;3552;42.664;23.406;2022-10-31T07:31:00;49207.69;;;-141.28;100.00
7022;BME280;3552;42.664;23.406;2022-10-31T07:33:26;49250.84;;;-141.28;100.00
7022;BME280;3552;42.664;23.406;2022-10-31T07:35:54;49301.88;;;-141.28;100.00
7022;BME280;3552;42.664;23.406;2022-10-31T07:38:20;49282.25;;;-141.28;100.00
7022;BME280;3552;42.664;23.406;2022-10-31T07:40:50;49258.69;;;-141.28;100.00
7022;BME280;3552;42.664;23.406;2022-10-31T07:43:18;49309.72;;;-141.28;100.00
7022;BME280;3552;42.664;23.406;2022-10-31T07:45:49;49435.31;;;-141.28;100.00
7022;BME280;3552;42.664;23.406;2022-10-31T07:48:18;49372.50;;;-141.28;100.00
7022;BME280;3552;42.664;23.406;2022-10-31T07:50:45;49398.03;;;-141.28;100.00
7022;BME280;3552;42.664;23.406;2022-10-31T07:53:13;49392.13;;;-141.28;100.00
7022;BME280;3552;42.664;23.406;2022-10-31T07:55:40;49341.13;;;-141.28;100.00
7022;BME280;3552;42.664;23.406;2022-10-31T07:58:09;49303.84;;;-141.28;100.00
7022;BME280;3552;42.664;23.406;2022-10-31T08:00:38;49217.50;;;-141.28;100.00
7022;BME280;3552;42.664;23.406;2022-10-31T08:03:07;49231.22;;;-141.28;100.00
7022;BME280;3552;42.664;23.406;2022-10-31T08:05:36;49439.22;;;-141.28;100.00
7022;BME280;3552;42.664;23.406;2022-10-31T08:08:04;49188.06;;;-141.28;100.00
7022;BME280;3552;42.664;23.406;2022-10-31T08:10:32;49125.28;;;-141.28;100.00
7022;BME280;3552;42.664;23.406;2022-10-31T08:13:01;49199.84;;;-141.28;100.00
7022;BME280;3552;42.664;23.406;2022-10-31T08:15:28;49192.00;;;-141.28;100.00
7022;BME280;3552;42.664;23.406;2022-10-31T08:17:56;49058.56;;;-141.28;100.00
7022;BME280;3552;42.664;23.406;2022-10-31T08:20:23;49105.66;;;-141.28;100.00
7022;BME280;3552;42.664;23.406;2022-10-31T08:22:55;49201.81;;;-141.28;100.00
7022;BME280;3552;42.664;23.406;2022-10-31T08:25:23;49144.91;;;-141.28;100.00
7022;BME280;3552;42.664;23.406;2022-10-31T08:27:52;49176.28;;;-141.28;100.00
7022;BME280;3552;42.664;23.406;2022-10-31T08:30:20;49172.38;;;-141.28;100.00
7022;BME280;3552;42.664;23.406;2022-10-31T08:32:50;49113.50;;;-141.28;100.00
7022;BME280;3552;42.664;23.406;2022-10-31T08:35:23;49152.75;;;-141.28;100.00
7022;BME280;3552;42.664;23.406;2022-10-31T08:37:52;49223.38;;;-141.28;100.00
7022;BME280;3552;42.664;23.406;2022-10-31T08:40:20;49215.53;;;-141.28;100.00
7022;BME280;3552;42.664;23.406;2022-10-31T08:42:55;49239.09;;;-141.28;100.00
7022;BME280;3552;42.664;23.406;2022-10-31T08:45:23;49388.22;;;-141.28;100.00
7022;BME280;3552;42.664;23.406;2022-10-31T08:47:49;49290.09;;;-141.28;100.00
7022;BME280;3552;42.664;23.406;2022-10-31T08:50:17;49156.66;;;-141.28;100.00
7022;BME280;3552;42.664;23.406;2022-10-31T08:52:44;49294.03;;;-141.28;100.00
7022;BME280;3552;42.664;23.406;2022-10-31T08:55:11;49301.88;;;-141.28;100.00
7022;BME280;3552;42.664;23.406;2022-10-31T08:57:39;49286.16;;;-141.28;100.00
7022;BME280;3552;42.664;23.406;2022-10-31T09:00:09;49294.03;;;-141.28;100.00
7022;BME280;3552;42.664;23.406;2022-10-31T09:02:36;49305.78;;;-141.28;100.00
7022;BME280;3552;42.664;23.406;2022-10-31T09:05:04;49258.69;;;-141.28;100.00
7022;BME280;3552;42.664;23.406;2022-10-31T09:07:31;49223.38;;;-141.28;100.00
7022;BME280;3552;42.664;23.406;2022-10-31T09:09:58;49229.28;;;-141.28;100.00
7022;BME280;3552;42.664;23.406;2022-10-31T09:12:24;49317.56;;;-141.28;100.00
7022;BME280;3552;42.664;23.406;2022-10-31T09:14:53;49205.72;;;-141.28;100.00
7022;BME280;3552;42.664;23.406;2022-10-31T09:17:20;49180.22;;;-141.28;100.00
7022;BME280;3552;42.664;23.406;2022-10-31T09:19:47;49174.34;;;-141.28;100.00
7022;BME280;3552;42.664;23.406;2022-10-31T09:22:14;49176.28;;;-141.28;100.00
7022;BME280;3552;42.664;23.406;2022-10-31T09:24:40;49192.00;;;-141.28;100.00
7022;BME280;3552;42.664;23.406;2022-10-31T09:27:08;49186.09;;;-141.28;100.00
7022;BME280;3552;42.664;23.406;2022-10-31T09:29:35;49129.19;;;-141.28;100.00
7022;BME280;3552;42.664;23.406;2022-10-31T09:32:04;49129.19;;;-141.28;100.00
7022;BME280;3552;42.664;23.406;2022-10-31T09:34:30;49086.03;;;-141.28;100.00
7022;BME280;3552;42.664;23.406;2022-10-31T09:36:58;49086.03;;;-141.28;99.76
7022;BME280;3552;42.664;23.406;2022-10-31T09:39:25;49082.13;;;-141.28;98.76
7022;BME280;3552;42.664;23.406;2022-10-31T09:42:03;48921.22;;;-141.28;97.72
7022;BME280;3552;42.664;23.406;2022-10-31T09:44:40;49031.09;;;-141.28;87.64
7022;BME280;3552;42.664;23.406;2022-10-31T09:47:17;49035.03;;;-141.28;83.52
7022;BME280;3552;42.664;23.406;2022-10-31T09:50:02;49031.09;;;-141.28;81.35
7022;BME280;3552;42.664;23.406;2022-10-31T09:52:36;49015.41;;;-141.28;77.11
7022;BME280;3552;42.664;23.406;2022-10-31T09:55:12;48909.47;;;-141.28;75.08
7022;BME280;3552;42.664;23.406;2022-10-31T09:57:41;49007.56;;;-141.28;73.55
7022;BME280;3552;42.664;23.406;2022-10-31T10:00:15;48968.31;;;-141.28;73.81
7022;BME280;3552;42.664;23.406;2022-10-31T10:02:47;48972.25;;;-141.28;72.70
7022;BME280;3552;42.664;23.406;2022-10-31T10:05:20;49007.56;;;-141.28;74.62
7022;BME280;3552;42.664;23.406;2022-10-31T10:07:59;49040.91;;;-141.28;75.32
7022;BME280;3552;42.664;23.406;2022-10-31T10:10:36;48970.28;;;-141.28;72.50
7022;BME280;3552;42.664;23.406;2022-10-31T10:13:35;48952.63;;;-141.28;71.03
7022;BME280;3552;42.664;23.406;2022-10-31T10:16:12;48960.47;;;-141.28;70.36
7022;BME280;3552;42.664;23.406;2022-10-31T10:18:56;48905.53;;;-141.28;66.28
7022;BME280;3552;42.664;23.406;2022-10-31T10:21:35;48917.31;;;-141.28;64.98
7022;BME280;3552;42.664;23.406;2022-10-31T10:24:12;48925.16;;;-141.28;65.87
7022;BME280;3552;42.664;23.406;2022-10-31T10:26:50;48948.69;;;-141.28;64.36
7022;BME280;3552;42.664;23.406;2022-10-31T10:29:33;48903.56;;;-141.28;64.03
7022;BME280;3552;42.664;23.406;2022-10-31T10:32:06;48895.72;;;-141.28;62.26
7022;BME280;3552;42.664;23.406;2022-10-31T10:34:41;49580.50;;;-141.28;64.21
7022;BME280;3552;42.664;23.406;2022-10-31T10:37:20;48948.69;;;-141.28;63.82
7022;BME280;3552;42.664;23.406;2022-10-31T10:39:51;48899.66;;;-141.28;62.55
7022;BME280;3552;42.664;23.406;2022-10-31T10:42:20;48915.34;;;-141.28;61.65
7022;BME280;3552;42.664;23.406;2022-10-31T10:45:13;48929.06;;;-141.28;62.58
7022;BME280;3552;42.664;23.406;2022-10-31T10:48:05;48917.31;;;-141.28;62.68
7022;BME280;3552;42.664;23.406;2022-10-31T10:50:38;48954.59;;;-141.28;65.13
7022;BME280;3552;42.664;23.406;2022-10-31T10:53:12;48897.69;;;-141.28;61.53
7022;BME280;3552;42.664;23.406;2022-10-31T10:55:51;48874.13;;;-141.28;59.04
7022;BME280;3552;42.664;23.406;2022-10-31T10:58:21;48882.00;;;-141.28;59.20
7022;BME280;3552;42.664;23.406;2022-10-31T11:00:47;48868.25;;;-141.28;58.39
7022;BME280;3552;42.664;23.406;2022-10-31T11:03:16;48858.44;;;-141.28;57.76
7022;BME280;3552;42.664;23.406;2022-10-31T11:05:48;48809.41;;;-141.28;56.18
7022;BME280;3552;42.664;23.406;2022-10-31T11:08:24;48897.69;;;-141.28;58.25
7022;BME280;3552;42.664;23.406;2022-10-31T11:11:01;48956.53;;;-141.28;61.24
7022;BME280;3552;42.664;23.406;2022-10-31T11:13:30;48913.38;;;-141.28;60.92
7022;BME280;3552;42.664;23.406;2022-10-31T11:16:00;48882.00;;;-141.28;59.08
7022;BME280;3552;42.664;23.406;2022-10-31T11:18:31;48811.34;;;-141.28;57.33
7022;BME280;3552;42.664;23.406;2022-10-31T11:21:02;48823.13;;;-141.28;53.88
7022;BME280;3552;42.664;23.406;2022-10-31T11:23:30;48811.34;;;-141.28;53.05
7022;BME280;3552;42.664;23.406;2022-10-31T11:25:59;48858.44;;;-141.28;54.03
7022;BME280;3552;42.664;23.406;2022-10-31T11:28:28;48885.91;;;-141.28;56.50
7022;BME280;3552;42.664;23.406;2022-10-31T11:30:57;48887.88;;;-141.28;57.44
7022;BME280;3552;42.664;23.406;2022-10-31T11:33:29;48840.78;;;-141.28;55.70
7022;BME280;3552;42.664;23.406;2022-10-31T11:35:58;48893.75;;;-141.28;56.09
7022;BME280;3552;42.664;23.406;2022-10-31T11:38:34;48878.06;;;-141.28;55.83
7022;BME280;3552;42.664;23.406;2022-10-31T11:41:11;49570.69;;;-141.28;55.79
7022;BME280;3552;42.664;23.406;2022-10-31T11:43:46;48842.75;;;-141.28;53.96
7022;BME280;3552;42.664;23.406;2022-10-31T11:46:19;48815.28;;;-141.28;52.76
7022;BME280;3552;42.664;23.406;2022-10-31T11:48:48;48827.06;;;-141.28;53.45
7022;BME280;3552;42.664;23.406;2022-10-31T11:51:20;48756.44;;;-141.28;51.79
7022;BME280;3552;42.664;23.406;2022-10-31T11:53:54;48772.13;;;-141.28;50.64
7022;BME280;3552;42.664;23.406;2022-10-31T11:56:21;48764.28;;;-141.28;50.44
7022;BME280;3552;42.664;23.406;2022-10-31T11:58:55;48725.03;;;-141.28;48.67
7022;BME280;3552;42.664;23.406;2022-10-31T12:01:24;48685.81;;;-141.28;48.03
7022;BME280;3552;42.664;23.406;2022-10-31T12:03:58;48709.34;;;-141.28;48.15
7022;BME280;3552;42.664;23.406;2022-10-31T12:06:30;48723.06;;;-141.28;48.25
7022;BME280;3552;42.664;23.406;2022-10-31T12:09:01;48701.50;;;-141.28;47.57
7022;BME280;3552;42.664;23.406;2022-10-31T12:11:40;48768.19;;;-141.28;48.82
7022;BME280;3552;42.664;23.406;2022-10-31T12:14:19;48728.97;;;-141.28;48.71
7022;BME280;3552;42.664;23.406;2022-10-31T12:16:52;48670.09;;;-141.28;46.70
7022;BME280;3552;42.664;23.406;2022-10-31T12:19:30;48693.66;;;-141.28;46.97
7022;BME280;3552;42.664;23.406;2022-10-31T12:22:07;48674.03;;;-141.28;46.08
7022;BME280;3552;42.664;23.406;2022-10-31T12:24:56;48693.66;;;-141.28;45.67
7022;BME280;3552;42.664;23.406;2022-10-31T12:27:35;48674.03;;;-141.28;45.77
7022;BME280;3552;42.664;23.406;2022-10-31T12:30:17;48587.72;;;-141.28;45.01
7022;BME280;3552;42.664;23.406;2022-10-31T12:32:59;48623.03;;;-141.28;44.34
7022;BME280;3552;42.664;23.406;2022-10-31T12:35:49;48685.81;;;-141.28;44.47
7022;BME280;3552;42.664;23.406;2022-10-31T12:38:34;48713.25;;;-141.28;45.79
7022;BME280;3552;42.664;23.406;2022-10-31T12:41:17;48672.06;;;-141.28;44.62
7022;BME280;3552;42.664;23.406;2022-10-31T12:43:50;48689.72;;;-141.28;44.81
7022;BME280;3552;42.664;23.406;2022-10-31T12:46:28;48725.03;;;-141.28;45.36
7022;BME280;3552;42.664;23.406;2022-10-31T12:49:12;48644.59;;;-141.28;44.81
7022;BME280;3552;42.664;23.406;2022-10-31T12:51:51;48721.13;;;-141.28;45.45
7022;BME280;3552;42.664;23.406;2022-10-31T12:54:33;48713.25;;;-141.28;46.02
7022;BME280;3552;42.664;23.406;2022-10-31T12:57:13;48693.66;;;-141.28;45.76
7022;BME280;3552;42.664;23.406;2022-10-31T12:59:46;48701.50;;;-141.28;45.42
7022;BME280;3552;42.664;23.406;2022-10-31T13:02:19;48674.03;;;-141.28;44.32
7022;BME280;3552;42.664;23.406;2022-10-31T13:04:50;49086.03;;;-141.28;44.75